Time;durP1;ratioP1;P1;durP2;ratioP2;P2;SDS_P1;SDS_P2;PMS_P1;PMS_P2;Temp;Humidity;BMP_temperature;BMP_pressure;BME280_temperature;BME280_humidity;BME280_pressure;Samples;Min_cycle;Max_cycle;Signal;HPM_P1;HPM_P2
2022/04/20 00:00:43;;;;;;;5.20;2.90;;;;;;;7.57;68.70;98906.34;4939446;29;20191;-94
2022/04/20 00:03:09;;;;;;;5.30;2.70;;;;;;;7.48;68.14;98906.75;4939429;29;20252;-94
2022/04/20 00:05:34;;;;;;;7.87;4.23;;;;;;;7.31;68.68;98896.22;4939424;29;20652;-94
2022/04/20 00:08:00;;;;;;;9.47;3.37;;;;;;;7.33;69.00;98903.06;4956103;29;20536;-94
2022/04/20 00:10:27;;;;;;;8.73;3.30;;;;;;;7.33;68.16;98897.84;4939106;29;20207;-94
2022/04/20 00:12:53;;;;;;;5.40;2.90;;;;;;;7.27;68.63;98902.47;4939490;29;20208;-94
2022/04/20 00:15:18;;;;;;;3.43;2.03;;;;;;;7.35;68.32;98900.38;4939380;29;20224;-94
2022/04/20 00:17:43;;;;;;;6.90;2.93;;;;;;;7.23;68.75;98900.91;4939292;29;20177;-95
2022/04/20 00:20:09;;;;;;;10.07;5.17;;;;;;;7.20;68.72;98901.03;4939229;29;20658;-94
2022/04/20 00:22:35;;;;;;;5.93;3.87;;;;;;;7.14;68.30;98903.91;4939151;29;20188;-94
2022/04/20 00:25:00;;;;;;;6.93;3.43;;;;;;;7.12;68.71;98903.13;4939012;29;20185;-94
2022/04/20 00:27:26;;;;;;;7.63;3.20;;;;;;;7.24;69.03;98897.38;4939018;29;20272;-94
2022/04/20 00:29:51;;;;;;;8.23;3.53;;;;;;;7.18;68.64;98900.25;4955820;29;20188;-93
2022/04/20 00:32:17;;;;;;;6.37;3.53;;;;;;;7.14;68.63;98911.72;4938851;29;20209;-94
2022/04/20 00:34:42;;;;;;;5.20;3.23;;;;;;;7.16;68.81;98908.13;4938964;29;20199;-94
2022/04/20 00:37:08;;;;;;;6.20;3.43;;;;;;;7.18;68.43;98914.13;4938964;29;20227;-94
2022/04/20 00:39:36;;;;;;;5.87;2.90;;;;;;;7.18;68.07;98914.13;4938863;29;20265;-94
2022/04/20 00:42:02;;;;;;;5.20;3.03;;;;;;;7.15;68.22;98921.25;4938307;29;20271;-94
2022/04/20 00:44:28;;;;;;;5.60;3.10;;;;;;;7.08;68.03;98920.63;4938879;29;20196;-94
2022/04/20 00:46:55;;;;;;;11.97;3.97;;;;;;;7.17;67.15;98916.81;4955408;29;20177;-95
2022/04/20 00:49:22;;;;;;;5.93;2.30;;;;;;;7.02;67.63;98918.31;4938625;29;20276;-94
2022/04/20 00:51:58;;;;;;;6.73;2.63;;;;;;;6.82;67.89;98921.72;4938732;29;20195;-94
2022/04/20 00:54:25;;;;;;;8.87;3.47;;;;;;;6.81;67.88;98930.44;4938756;29;20177;-94
2022/04/20 00:56:50;;;;;;;5.40;3.47;;;;;;;6.74;67.87;98925.53;4955356;29;20181;-94
2022/04/20 00:59:20;;;;;;;7.17;3.03;;;;;;;6.74;67.99;98933.34;4955390;29;20188;-94
2022/04/20 01:01:46;;;;;;;11.17;3.97;;;;;;;6.64;68.75;98925.06;4938535;29;20264;-94
2022/04/20 01:04:11;;;;;;;9.73;4.50;;;;;;;6.64;68.81;98932.03;4938557;29;20221;-93
2022/04/20 01:06:37;;;;;;;7.63;3.10;;;;;;;6.62;68.75;98933.84;4938482;29;20275;-94
2022/04/20 01:09:02;;;;;;;5.27;2.47;;;;;;;6.61;69.25;98932.16;4938647;29;20589;-94
2022/04/20 01:11:28;;;;;;;6.47;3.37;;;;;;;6.57;69.21;98926.22;4938361;29;20204;-94
2022/04/20 01:13:54;;;;;;;10.67;4.63;;;;;;;6.61;69.10;98932.16;4938444;29;20621;-94
2022/04/20 01:16:19;;;;;;;7.03;3.70;;;;;;;6.65;68.49;98933.72;4938597;29;20264;-94
2022/04/20 01:18:45;;;;;;;3.83;2.77;;;;;;;6.63;68.10;98938.16;4938436;29;20177;-94
2022/04/20 01:21:11;;;;;;;5.77;2.57;;;;;;;6.65;68.21;98934.59;4938436;29;20188;-94
2022/04/20 01:23:37;;;;;;;3.70;2.47;;;;;;;6.73;67.57;98936.88;4938502;29;20693;-95
2022/04/20 01:26:09;;;;;;;4.20;1.97;;;;;;;6.78;66.88;98940.16;4938373;29;20196;-94
2022/04/20 01:28:36;;;;;;;4.00;2.13;;;;;;;6.62;66.03;98939.91;4938290;29;20256;-94
2022/04/20 01:31:02;;;;;;;4.57;2.50;;;;;;;6.40;66.06;98936.44;4938301;29;20693;-93
2022/04/20 01:33:28;;;;;;;6.47;2.47;;;;;;;6.14;66.06;98929.66;4938415;29;20264;-94
2022/04/20 01:35:53;;;;;;;5.33;2.27;;;;;;;6.09;66.58;98928.13;4955127;29;20530;-94
2022/04/20 01:38:19;;;;;;;3.17;1.77;;;;;;;5.98;66.88;98931.13;4938309;29;20181;-94
2022/04/20 01:40:44;;;;;;;4.70;1.50;;;;;;;5.94;67.95;98926.09;4938213;29;20184;-94
2022/04/20 01:43:10;;;;;;;3.17;1.90;;;;;;;5.93;67.89;98929.59;4938026;29;20199;-94
2022/04/20 01:45:35;;;;;;;6.23;2.10;;;;;;;5.94;68.17;98928.69;4938582;29;20184;-94
2022/04/20 01:48:01;;;;;;;4.57;2.13;;;;;;;5.92;67.72;98920.13;4938438;29;20334;-94
2022/04/20 01:50:26;;;;;;;4.30;2.27;;;;;;;5.97;67.20;98924.25;4938128;29;20672;-94
2022/04/20 01:52:52;;;;;;;2.70;1.60;;;;;;;6.05;67.55;98923.94;4954868;28;20183;-94
2022/04/20 01:55:17;;;;;;;4.20;1.80;;;;;;;6.11;66.90;98921.94;4941071;29;20250;-94
2022/04/20 01:57:43;;;;;;;4.50;2.07;;;;;;;6.15;67.05;98917.50;4941602;29;20550;-94
2022/04/20 02:00:10;;;;;;;4.10;2.07;;;;;;;5.94;67.17;98913.09;4958220;29;20191;-94
2022/04/20 02:02:38;;;;;;;5.00;1.87;;;;;;;5.80;67.66;98907.50;4958802;29;20600;-94
2022/04/20 02:05:08;;;;;;;4.63;2.13;;;;;;;5.91;67.68;98913.19;4958466;29;20683;-94
2022/04/20 02:07:34;;;;;;;6.40;2.07;;;;;;;5.81;68.32;98911.81;4941451;29;20180;-93
2022/04/20 02:10:00;;;;;;;3.97;2.40;;;;;;;5.84;68.10;98906.50;4958166;29;20268;-94
2022/04/20 02:12:26;;;;;;;4.77;1.97;;;;;;;5.87;68.27;98917.66;4957949;29;20664;-93
2022/04/20 02:14:52;;;;;;;4.57;2.90;;;;;;;5.94;68.05;98919.16;4958114;29;20188;-94
2022/04/20 02:17:17;;;;;;;5.73;2.50;;;;;;;6.03;67.64;98921.38;4941217;29;20211;-93
2022/04/20 02:19:43;;;;;;;5.53;1.60;;;;;;;6.05;67.55;98923.94;4941155;29;20192;-93
2022/04/20 02:22:08;;;;;;;5.27;2.77;;;;;;;5.90;67.74;98921.91;4941111;29;20245;-93
2022/04/20 02:24:34;;;;;;;1.87;1.30;;;;;;;5.73;68.07;98924.25;4941066;29;20216;-93
2022/04/20 02:27:00;;;;;;;8.93;3.07;;;;;;;5.58;68.37;98921.28;4957884;29;20189;-93
2022/04/20 02:29:26;;;;;;;3.17;1.80;;;;;;;5.57;68.99;98924.81;4940919;29;20203;-93
2022/04/20 02:31:51;;;;;;;4.83;2.67;;;;;;;5.55;69.22;98926.59;4940872;29;20528;-93
2022/04/20 02:34:16;;;;;;;3.73;2.47;;;;;;;5.63;68.99;98923.75;4940959;29;20648;-93
2022/04/20 02:36:42;;;;;;;6.63;2.90;;;;;;;5.71;69.22;98915.66;4957626;29;20629;-93
2022/04/20 02:39:08;;;;;;;2.13;1.07;;;;;;;5.74;68.86;98915.56;4957627;29;20187;-94
2022/04/20 02:41:36;;;;;;;5.03;1.63;;;;;;;5.81;68.85;98919.63;4957727;29;20201;-93
2022/04/20 02:44:03;;;;;;;4.40;2.17;;;;;;;5.76;69.02;98914.59;4957850;29;20319;-93
2022/04/20 02:46:29;;;;;;;3.20;2.00;;;;;;;5.83;68.79;98910.84;4957530;29;20175;-94
2022/04/20 02:48:54;;;;;;;3.63;1.60;;;;;;;5.77;69.24;98916.28;4940755;29;20186;-94
2022/04/20 02:51:19;;;;;;;3.20;2.10;;;;;;;5.68;70.25;98910.56;4957599;29;20275;-93
2022/04/20 02:53:45;;;;;;;2.67;1.63;;;;;;;5.62;70.74;98910.78;4957940;29;20186;-93
2022/04/20 02:56:10;;;;;;;2.60;1.63;;;;;;;5.64;71.36;98914.16;4957328;29;20189;-93
2022/04/20 02:58:36;;;;;;;2.13;1.40;;;;;;;5.71;71.60;98919.13;4957185;29;20266;-93
2022/04/20 03:01:01;;;;;;;6.03;2.33;;;;;;;5.66;71.71;98922.78;4940392;29;20244;-92
2022/04/20 03:03:27;;;;;;;6.50;2.33;;;;;;;5.62;71.71;98927.25;4940397;29;20524;-93
2022/04/20 03:05:53;;;;;;;8.80;3.10;;;;;;;5.65;71.37;98928.88;4957063;28;20186;-93
2022/04/20 03:08:19;;;;;;;5.33;2.57;;;;;;;5.61;71.07;98924.72;4940250;29;20652;-93
2022/04/20 03:10:44;;;;;;;3.33;1.90;;;;;;;5.54;70.55;98932.72;4940279;29;20206;-94
2022/04/20 03:13:13;;;;;;;3.40;2.37;;;;;;;5.55;70.65;98931.78;4957229;29;20178;-93
2022/04/20 03:15:38;;;;;;;5.57;3.60;;;;;;;5.65;70.51;98931.47;4940347;29;20186;-93
2022/04/20 03:18:03;;;;;;;6.67;2.00;;;;;;;5.73;69.83;98930.31;4940821;29;20254;-93
2022/04/20 03:20:29;;;;;;;4.27;2.30;;;;;;;5.68;68.93;98941.78;4957491;29;20316;-93
2022/04/20 03:22:54;;;;;;;3.73;2.13;;;;;;;5.68;69.25;98941.78;4956979;29;20176;-93
2022/04/20 03:25:20;;;;;;;3.53;2.23;;;;;;;5.77;68.98;98944.03;4940478;29;20596;-93
2022/04/20 03:27:45;;;;;;;4.47;2.60;;;;;;;5.74;68.57;98951.97;4940122;29;20188;-93
2022/04/20 03:30:12;;;;;;;6.03;3.00;;;;;;;5.79;68.62;98957.84;4940127;29;20565;-94
2022/04/20 03:32:39;;;;;;;5.93;2.40;;;;;;;5.80;67.73;98946.53;4940073;29;20558;-93
2022/04/20 03:35:05;;;;;;;4.13;2.27;;;;;;;5.75;67.88;98945.84;4940128;29;20182;-94
2022/04/20 03:37:30;;;;;;;6.07;2.73;;;;;;;5.67;67.71;98955.66;4940047;29;20687;-93
2022/04/20 03:39:57;;;;;;;6.00;2.80;;;;;;;5.58;68.13;98957.69;4957118;29;20279;-93
2022/04/20 03:42:22;;;;;;;4.23;2.97;;;;;;;5.66;68.26;98954.00;4939905;29;20202;-95
2022/04/20 03:44:48;;;;;;;9.27;3.27;;;;;;;5.61;68.54;98951.53;4940184;29;20194;-94
2022/04/20 03:47:13;;;;;;;4.23;2.70;;;;;;;5.51;68.59;98953.63;4940322;29;20190;-94
2022/04/20 03:49:39;;;;;;;8.33;3.80;;;;;;;5.52;68.86;98951.88;4939875;29;20636;-94
2022/04/20 03:52:08;;;;;;;9.27;3.50;;;;;;;5.59;68.51;98951.59;4939760;29;20213;-94
2022/04/20 03:54:37;;;;;;;2.90;2.00;;;;;;;5.72;68.63;98953.75;4939776;29;20184;-94
2022/04/20 03:57:03;;;;;;;4.57;2.57;;;;;;;5.75;68.68;98943.25;4939611;29;20703;-94
2022/04/20 03:59:30;;;;;;;4.87;2.27;;;;;;;5.71;68.88;98957.28;4939614;29;20214;-94
2022/04/20 04:01:55;;;;;;;7.07;1.97;;;;;;;5.64;69.17;98951.44;4939549;29;20187;-93
2022/04/20 04:04:21;;;;;;;3.53;2.60;;;;;;;5.59;69.60;98959.41;4939546;29;20191;-94
2022/04/20 04:06:47;;;;;;;5.83;3.47;;;;;;;5.53;70.09;98964.81;4939626;29;20257;-94
2022/04/20 04:09:13;;;;;;;3.97;2.17;;;;;;;5.47;70.98;98972.84;4956577;29;20214;-94
2022/04/20 04:11:39;;;;;;;5.37;3.27;;;;;;;5.51;71.13;98973.56;4939354;29;20242;-94
2022/04/20 04:14:04;;;;;;;5.93;3.07;;;;;;;5.47;71.24;98975.44;4939502;29;20686;-94
2022/04/20 04:16:30;;;;;;;6.50;3.83;;;;;;;5.63;71.33;98973.16;4938990;29;20184;-94
2022/04/20 04:18:55;;;;;;;5.67;1.90;;;;;;;5.73;71.13;98971.06;4939394;29;20183;-94
2022/04/20 04:21:21;;;;;;;3.17;1.77;;;;;;;5.82;71.15;98965.50;4939396;29;20639;-94
2022/04/20 04:23:47;;;;;;;7.90;3.23;;;;;;;5.82;71.84;98968.09;4939237;29;20251;-94
2022/04/20 04:26:13;;;;;;;6.87;3.87;;;;;;;5.88;72.27;98975.72;4939113;29;20281;-93
2022/04/20 04:28:40;;;;;;;7.07;4.43;;;;;;;6.02;71.74;98978.69;4939199;29;20286;-93
2022/04/20 04:31:06;;;;;;;7.17;3.80;;;;;;;6.16;71.13;98984.22;4955796;29;20201;-92
2022/04/20 04:33:34;;;;;;;11.47;3.97;;;;;;;6.39;71.05;98989.44;4939059;29;20271;-92
2022/04/20 04:36:00;;;;;;;6.37;2.93;;;;;;;6.60;70.55;98988.56;4938801;29;20259;-92
2022/04/20 04:38:26;;;;;;;7.80;4.33;;;;;;;6.76;70.24;98991.47;4955524;29;20260;-92
2022/04/20 04:40:52;;;;;;;6.27;3.37;;;;;;;7.02;69.88;98983.44;4955663;29;20181;-93
2022/04/20 04:43:18;;;;;;;4.73;2.80;;;;;;;7.23;67.58;98984.31;4938555;29;20635;-92
2022/04/20 04:48:36;;;;;;;5.77;2.97;;;;;;;7.71;65.93;98991.81;4956297;29;20184;-93
2022/04/20 04:51:03;;;;;;;5.27;2.77;;;;;;;8.02;64.83;98995.63;4955439;29;20207;-93
2022/04/20 04:53:29;;;;;;;7.47;2.30;;;;;;;8.33;64.85;98995.09;4955780;29;20616;-92
2022/04/20 04:55:55;;;;;;;3.50;2.20;;;;;;;8.59;64.27;98986.91;4938499;29;20216;-91
2022/04/20 04:58:20;;;;;;;5.33;3.17;;;;;;;8.94;63.86;98984.38;4955202;29;20617;-92
2022/04/20 05:00:46;;;;;;;4.27;1.80;;;;;;;9.28;62.69;98971.34;4938312;29;20173;-93
2022/04/20 05:03:14;;;;;;;6.13;2.70;;;;;;;9.62;62.86;98973.97;4955732;29;20177;-91
2022/04/20 05:05:41;;;;;;;4.07;1.80;;;;;;;9.93;62.50;98970.63;4938288;29;20633;-91
2022/04/20 05:08:07;;;;;;;6.40;2.43;;;;;;;10.26;61.93;98970.63;4938349;29;20219;-92
2022/04/20 05:10:33;;;;;;;4.37;2.40;;;;;;;10.49;61.70;98959.72;4955006;29;20203;-93
2022/04/20 05:13:00;;;;;;;4.03;2.47;;;;;;;10.61;61.64;98960.84;4938449;29;20185;-92
2022/04/20 05:15:26;;;;;;;6.67;2.93;;;;;;;10.48;61.33;98966.75;4955052;29;20668;-92
2022/04/20 05:17:51;;;;;;;5.60;3.30;;;;;;;10.40;62.30;98963.69;4938274;29;20203;-94
2022/04/20 05:20:19;;;;;;;4.30;2.47;;;;;;;10.34;62.92;98957.94;4938440;29;20637;-92
2022/04/20 05:22:44;;;;;;;6.57;3.73;;;;;;;10.23;63.13;98955.91;4938271;29;20177;-93
2022/04/20 05:25:10;;;;;;;5.73;3.23;;;;;;;10.23;64.31;98962.91;4938357;29;20192;-92
2022/04/20 05:27:36;;;;;;;5.90;2.90;;;;;;;10.27;65.10;98960.03;4955633;28;20297;-92
2022/04/20 05:30:02;;;;;;;7.43;3.23;;;;;;;10.30;65.26;98952.03;4940941;29;20199;-92
2022/04/20 05:32:28;;;;;;;5.70;3.33;;;;;;;10.23;64.93;98950.69;4941967;29;20296;-92
2022/04/20 05:34:53;;;;;;;7.77;3.77;;;;;;;10.34;65.50;98948.31;4941748;29;20284;-92
2022/04/20 05:42:47;;;;;;;8.00;3.93;;;;;;;10.41;65.65;98959.31;4958860;29;20277;-92
2022/04/20 05:45:12;;;;;;;5.20;3.50;;;;;;;10.45;66.81;98956.41;4958740;29;20196;-91
2022/04/20 05:47:40;;;;;;;7.47;4.17;;;;;;;10.68;66.69;98957.78;4941737;29;20188;-91
2022/04/20 05:50:06;;;;;;;7.60;3.73;;;;;;;10.86;65.65;98951.50;4952167;29;20243;-90
2022/04/20 05:52:31;;;;;;;11.37;4.57;;;;;;;10.92;63.90;98951.19;4953253;29;20205;-91
2022/04/20 05:54:57;;;;;;;8.00;4.10;;;;;;;11.00;65.44;98953.34;4958216;29;20221;-92
2022/04/20 05:57:24;;;;;;;5.87;3.77;;;;;;;11.18;65.04;98954.91;4941496;29;20189;-93
2022/04/20 05:59:49;;;;;;;12.20;5.57;;;;;;;11.21;64.10;98954.75;4942040;29;20583;-92
2022/04/20 06:02:15;;;;;;;10.00;5.43;;;;;;;11.30;65.26;98951.56;4958316;29;20205;-93
2022/04/20 06:04:40;;;;;;;11.67;4.50;;;;;;;11.40;64.95;98947.47;4941423;28;20189;-92
2022/04/20 06:07:06;;;;;;;7.67;4.67;;;;;;;11.55;64.92;98954.47;4956783;29;20187;-92
2022/04/20 06:09:32;;;;;;;6.53;2.90;;;;;;;11.70;61.19;98956.19;4950953;29;20180;-92
2022/04/20 06:11:58;;;;;;;6.37;3.20;;;;;;;11.89;58.03;98950.69;4958433;28;20250;-92
2022/04/20 06:14:24;;;;;;;8.73;3.07;;;;;;;11.88;58.06;98943.72;4941065;29;20192;-92
2022/04/20 06:16:50;;;;;;;5.37;3.00;;;;;;;11.97;58.04;98942.34;4958083;29;20204;-93
2022/04/20 06:19:16;;;;;;;5.17;3.37;;;;;;;12.16;59.58;98940.25;4941357;28;20205;-91
2022/04/20 06:21:41;;;;;;;6.23;3.00;;;;;;;12.53;58.23;98933.53;4958435;28;20181;-92
2022/04/20 06:24:07;;;;;;;5.23;3.07;;;;;;;13.41;56.31;98936.50;4969657;28;20622;-91
2022/04/20 06:26:32;;;;;;;8.10;3.30;;;;;;;14.36;53.99;98926.38;4940892;29;20447;-92
2022/04/20 06:28:58;;;;;;;8.00;3.00;;;;;;;15.05;50.64;98918.59;4949301;28;20183;-92
2022/04/20 06:31:23;;;;;;;6.17;3.30;;;;;;;15.67;49.12;98907.78;4977264;28;20204;-93
2022/04/20 06:33:48;;;;;;;6.57;3.73;;;;;;;16.20;46.82;98903.56;4960362;28;20580;-92
2022/04/20 06:36:14;;;;;;;6.90;3.70;;;;;;;16.74;46.70;98899.19;4976923;28;20177;-92
2022/04/20 06:38:39;;;;;;;4.90;2.70;;;;;;;17.12;44.96;98906.63;4958079;28;20189;-92
2022/04/20 06:41:05;;;;;;;6.17;3.17;;;;;;;17.58;43.21;98896.53;4957073;28;20174;-94
2022/04/20 06:43:35;;;;;;;5.47;3.40;;;;;;;17.60;41.51;98897.25;4939854;29;20304;-93
2022/04/20 06:46:01;;;;;;;5.97;2.50;;;;;;;17.90;42.47;98882.34;4939362;29;20410;-93
2022/04/20 06:48:27;;;;;;;5.90;3.40;;;;;;;18.15;41.73;98882.72;4940064;29;20243;-94
2022/04/20 06:50:53;;;;;;;6.97;4.33;;;;;;;18.29;41.24;98878.88;4940215;29;20603;-92
2022/04/20 06:58:48;;;;;;;6.37;3.60;;;;;;;18.51;41.08;98876.00;4957123;29;20176;-94
2022/04/20 07:01:19;;;;;;;5.40;3.23;;;;;;;18.34;38.61;98876.66;4940623;29;20177;-94
2022/04/20 07:03:44;;;;;;;4.90;2.30;;;;;;;18.20;43.03;98877.88;4940573;29;20178;-92
2022/04/20 07:06:10;;;;;;;5.20;3.07;;;;;;;18.33;42.77;98873.16;4957585;29;20177;-92
2022/04/20 07:08:36;;;;;;;7.67;3.80;;;;;;;18.42;42.49;98872.31;4940435;29;20187;-93
2022/04/20 07:11:03;;;;;;;7.57;3.37;;;;;;;18.48;44.23;98870.97;4957388;29;20205;-93
2022/04/20 07:13:29;;;;;;;6.00;3.57;;;;;;;18.25;41.53;98872.16;4940577;29;20208;-94
2022/04/20 07:15:54;;;;;;;6.20;3.13;;;;;;;18.32;43.16;98863.50;4940369;29;20622;-92
2022/04/20 07:18:20;;;;;;;7.50;3.67;;;;;;;18.51;43.94;98856.59;4940616;29;20183;-93
2022/04/20 07:21:05;;;;;;;;;;;;;;;;;;;;;
2022/04/20 07:23:34;;;;;;;7.57;4.50;;;;;;;17.74;43.26;98867.75;4957477;28;20612;-93
2022/04/20 07:26:33;;;;;;;;;;;;;;;;;;;;;
2022/04/20 07:29:06;;;;;;;6.63;3.70;;;;;;;17.53;43.98;98866.94;4940708;29;20197;-92
2022/04/20 07:31:51;;;;;;;16.43;5.27;;;;;;;17.47;45.65;98864.78;4940771;29;20268;-93
2022/04/20 07:34:17;;;;;;;5.77;3.23;;;;;;;17.57;47.26;98859.56;4940052;29;20197;-91
2022/04/20 07:36:50;;;;;;;6.17;3.07;;;;;;;17.79;48.00;98852.28;4956525;29;20263;-92
2022/04/20 07:39:15;;;;;;;9.13;3.57;;;;;;;17.87;46.83;98851.63;4940804;29;20177;-93
2022/04/20 07:41:42;;;;;;;6.83;3.37;;;;;;;18.16;48.42;98846.44;4939879;29;20639;-92
2022/04/20 07:44:08;;;;;;;5.47;2.93;;;;;;;18.31;47.74;98845.06;4939556;29;20205;-93
2022/04/20 07:46:38;;;;;;;11.50;4.37;;;;;;;17.90;45.92;98839.94;4957069;29;20253;-93
2022/04/20 07:50:18;;;;;;;7.20;3.93;;;;;;;18.04;46.95;98835.09;4939957;29;20181;-93
2022/04/20 07:51:52;;;;;;;6.50;3.77;;;;;;;17.99;47.87;98833.81;4955478;28;20580;-92
2022/04/20 07:54:18;;;;;;;5.90;3.13;;;;;;;18.03;47.17;98830.75;4939791;29;20195;-93
2022/04/20 07:57:17;;;;;;;5.10;2.70;;;;;;;18.15;47.14;98828.84;4939973;29;20333;-96
2022/04/20 07:59:43;;;;;;;6.10;3.37;;;;;;;18.40;46.53;98823.00;4956769;29;20169;-91
2022/04/20 08:02:08;;;;;;;7.80;3.80;;;;;;;17.82;46.54;98823.84;4956665;29;20262;-93
2022/04/20 08:04:34;;;;;;;6.67;3.60;;;;;;;17.95;46.59;98813.84;4956729;29;20275;-92
2022/04/20 08:06:59;;;;;;;6.03;2.53;;;;;;;17.80;48.30;98814.19;4939395;29;20188;-93
2022/04/20 08:09:34;;;;;;;6.67;3.50;;;;;;;17.40;45.34;98810.63;4956350;29;20181;-92
2022/04/20 08:11:59;;;;;;;3.57;2.13;;;;;;;17.28;45.64;98801.06;4938992;29;20209;-93
2022/04/20 08:14:25;;;;;;;5.50;3.10;;;;;;;17.48;46.10;98796.72;4939311;29;20182;-92
2022/04/20 08:16:52;;;;;;;3.70;2.47;;;;;;;17.30;46.26;98799.13;4956676;29;20177;-93
2022/04/20 08:19:20;;;;;;;3.27;2.00;;;;;;;17.32;47.27;98791.88;4939268;29;20181;-93
2022/04/20 08:21:45;;;;;;;3.67;2.37;;;;;;;17.45;46.42;98786.41;4956463;29;20196;-93
2022/04/20 08:24:14;;;;;;;3.80;2.23;;;;;;;17.46;45.34;98783.59;4956161;29;20549;-92
2022/04/20 08:26:39;;;;;;;5.30;2.27;;;;;;;17.24;47.46;98788.22;4956225;29;20660;-91
2022/04/20 08:29:09;;;;;;;4.20;2.37;;;;;;;17.36;45.50;98776.56;4956155;29;20177;-93
2022/04/20 08:31:35;;;;;;;4.37;2.00;;;;;;;17.64;47.89;98767.94;4956041;29;20197;-91
2022/04/20 08:34:01;;;;;;;4.67;2.60;;;;;;;17.63;46.27;98767.13;4955691;29;20174;-95
2022/04/20 08:36:26;;;;;;;4.70;2.20;;;;;;;17.35;46.96;98769.63;4939216;29;20189;-92
2022/04/20 08:38:59;;;;;;;3.87;2.20;;;;;;;17.60;47.38;98764.75;4939414;29;20185;-95
2022/04/20 08:41:27;;;;;;;4.83;2.73;;;;;;;17.91;45.73;98756.72;4939099;29;20267;-94
2022/04/20 08:43:53;;;;;;;4.23;2.23;;;;;;;18.05;45.36;98756.34;4955710;28;20234;-93
2022/04/20 08:46:19;;;;;;;3.27;1.77;;;;;;;17.83;45.21;98753.91;4955748;29;20213;-89
2022/04/20 08:48:44;;;;;;;4.30;1.90;;;;;;;17.94;46.26;98759.13;4955564;29;20193;-91
2022/04/20 08:52:37;;;;;;;4.33;1.90;;;;;;;18.00;46.33;98755.94;4955442;29;20207;-93
2022/04/20 08:54:22;;;;;;;3.77;2.13;;;;;;;18.04;46.64;98755.50;4938473;29;20224;-92
2022/04/20 08:59:34;;;;;;;4.87;2.23;;;;;;;17.68;46.88;98749.00;4955996;29;20288;-93
2022/04/20 09:02:04;;;;;;;3.90;2.30;;;;;;;17.35;46.92;98751.88;4938300;29;20183;-94
2022/04/20 09:04:29;;;;;;;3.07;1.87;;;;;;;17.26;47.33;98747.41;4938288;29;20189;-91
2022/04/20 09:06:55;;;;;;;6.07;2.50;;;;;;;16.80;47.97;98761.03;4938495;29;20204;-89
2022/04/20 09:09:28;;;;;;;4.37;2.00;;;;;;;16.82;48.57;98759.13;4955484;29;20189;-91
2022/04/20 09:11:54;;;;;;;6.13;3.73;;;;;;;16.82;48.93;98750.34;4938267;29;20371;-91
2022/04/20 09:14:20;;;;;;;4.23;2.67;;;;;;;16.98;49.09;98762.13;4955107;29;20633;-92
2022/04/20 09:16:46;;;;;;;4.73;2.53;;;;;;;17.06;47.76;98759.69;4955114;29;20178;-90
2022/04/20 09:19:13;;;;;;;2.90;2.13;;;;;;;16.85;48.59;98772.06;4939022;29;20181;-92
2022/04/20 09:21:49;;;;;;;;;;;;;;;;;;;;;
2022/04/20 09:24:15;;;;;;;3.93;2.00;;;;;;;16.59;49.50;98771.59;4956017;29;20157;-93
2022/04/20 09:26:56;;;;;;;4.97;2.43;;;;;;;16.48;50.10;98773.44;4938312;29;20199;-93
2022/04/20 09:29:23;;;;;;;4.20;2.40;;;;;;;16.39;49.95;98777.69;4955226;29;20537;-91
2022/04/20 09:31:55;;;;;;;4.77;2.60;;;;;;;16.28;50.78;98785.63;4954854;29;20236;-91
2022/04/20 09:34:30;;;;;;;3.67;1.97;;;;;;;16.50;50.08;98782.94;4955275;29;20260;-90
2022/04/20 09:36:58;;;;;;;4.43;2.27;;;;;;;16.27;51.10;98778.66;4955576;29;20256;-93
2022/04/20 09:39:31;;;;;;;6.17;2.57;;;;;;;16.27;52.04;98788.41;4954947;29;20196;-91
2022/04/20 09:42:02;;;;;;;4.37;2.27;;;;;;;16.66;54.32;98776.41;4955170;29;20158;-91
2022/04/20 09:44:30;;;;;;;4.53;2.70;;;;;;;16.65;54.44;98787.94;4955107;29;20184;-91
2022/04/20 09:50:02;;;;;;;10.27;4.50;;;;;;;16.25;56.26;98804.41;4955788;29;20248;-95
2022/04/20 09:52:39;;;;;;;5.33;3.07;;;;;;;15.69;58.72;98816.00;4938280;29;20307;-94
2022/04/20 09:55:06;;;;;;;9.10;4.57;;;;;;;14.94;62.19;98826.16;4938235;29;20211;-92
2022/04/20 09:57:34;;;;;;;8.97;4.80;;;;;;;14.57;64.25;98824.63;4954800;29;20193;-88
2022/04/20 10:00:00;;;;;;;9.37;4.63;;;;;;;14.37;66.64;98812.03;4954715;29;20178;-94
2022/04/20 10:02:28;;;;;;;6.43;3.33;;;;;;;13.88;68.26;98799.75;4938724;29;20177;-93
2022/04/20 10:04:55;;;;;;;9.03;3.90;;;;;;;13.83;69.71;98793.09;4955158;29;20184;-92
2022/04/20 10:07:20;;;;;;;8.77;4.10;;;;;;;13.86;69.43;98780.53;4938080;29;20184;-93
2022/04/20 10:09:46;;;;;;;8.67;4.80;;;;;;;13.89;69.19;98784.75;4954968;29;20542;-94
2022/04/20 10:12:13;;;;;;;10.90;5.33;;;;;;;14.04;68.48;98787.16;4938007;29;20200;-93
2022/04/20 10:17:26;;;;;;;6.53;3.00;;;;;;;13.73;68.73;98784.19;4958933;29;20186;-94
2022/04/20 10:19:53;;;;;;;5.50;3.17;;;;;;;13.74;68.43;98776.16;4958737;29;20192;-93
2022/04/20 10:22:20;;;;;;;7.20;3.77;;;;;;;13.89;68.35;98776.84;4941707;29;20181;-93
2022/04/20 10:24:50;;;;;;;8.03;3.90;;;;;;;14.23;68.57;98772.63;4958815;29;20274;-96
2022/04/20 10:27:25;;;;;;;7.93;4.03;;;;;;;14.22;66.59;98773.56;4959435;29;20162;-95
2022/04/20 10:30:00;;;;;;;8.07;4.40;;;;;;;14.26;65.82;98765.31;4941645;29;20180;-94
2022/04/20 10:32:29;;;;;;;6.13;3.47;;;;;;;14.23;66.20;98770.00;4959174;29;20210;-95
2022/04/20 10:34:54;;;;;;;7.47;4.10;;;;;;;13.98;65.58;98769.13;4941074;29;20200;-91
2022/04/20 10:37:31;;;;;;;10.57;4.23;;;;;;;14.05;65.46;98759.81;4940748;29;20181;-91
2022/04/20 10:40:16;;;;;;;6.00;2.77;;;;;;;14.52;66.07;98750.22;4957665;29;20248;-91
2022/04/20 10:42:42;;;;;;;7.60;4.27;;;;;;;14.89;66.56;98741.25;4941288;29;20195;-92
2022/04/20 10:45:12;;;;;;;5.67;3.10;;;;;;;14.84;62.65;98751.31;4940787;29;20185;-91
2022/04/20 10:47:42;;;;;;;5.50;3.40;;;;;;;15.28;60.91;98754.00;4957899;29;20267;-93
2022/04/20 10:50:17;;;;;;;6.90;3.60;;;;;;;15.61;60.79;98747.09;4957923;29;20660;-90
2022/04/20 10:53:03;;;;;;;6.43;3.80;;;;;;;15.70;60.30;98735.75;4957326;29;20200;-91
2022/04/20 10:55:32;;;;;;;8.30;3.70;;;;;;;15.88;61.71;98739.56;4940283;29;20185;-90
2022/04/20 10:58:03;;;;;;;7.13;3.30;;;;;;;16.13;61.05;98723.44;4957655;29;20178;-90
2022/04/20 11:00:36;;;;;;;3.93;2.43;;;;;;;16.45;58.38;98726.91;4957392;29;20238;-90
2022/04/20 11:03:06;;;;;;;5.17;3.20;;;;;;;16.45;57.45;98718.13;4957314;29;20636;-90
2022/04/20 11:05:32;;;;;;;4.77;3.20;;;;;;;16.41;57.86;98719.34;4940360;29;20198;-91
2022/04/20 11:08:00;;;;;;;7.37;3.30;;;;;;;16.55;57.30;98727.88;4956916;29;20631;-89
2022/04/20 11:10:26;;;;;;;8.60;3.87;;;;;;;16.72;57.02;98734.38;4957349;29;20242;-89
2022/04/20 11:18:39;;;;;;;6.00;3.40;;;;;;;16.73;56.40;98722.81;4956748;29;20277;-90
2022/04/20 11:21:07;;;;;;;7.57;2.97;;;;;;;16.80;56.23;98715.19;4956911;29;20588;-90
2022/04/20 11:23:57;;;;;;;7.77;3.50;;;;;;;16.81;55.49;98708.94;4956566;29;20179;-90
2022/04/20 11:26:30;;;;;;;5.40;3.23;;;;;;;16.71;55.33;98708.88;4956797;28;20225;-89
2022/04/20 11:29:08;;;;;;;5.37;2.80;;;;;;;16.82;55.87;98702.69;4956745;29;20616;-89
2022/04/20 11:31:38;;;;;;;7.47;3.60;;;;;;;16.81;55.51;98693.06;4939512;29;20201;-90
2022/04/20 11:34:04;;;;;;;7.97;3.57;;;;;;;16.75;55.00;98693.56;4939507;29;20191;-89
2022/04/20 11:36:30;;;;;;;5.87;3.33;;;;;;;16.68;55.49;98695.91;4939993;29;20596;-90
2022/04/20 11:38:55;;;;;;;7.27;4.23;;;;;;;16.65;55.82;98682.09;4939324;29;20275;-89
2022/04/20 11:41:21;;;;;;;6.87;3.40;;;;;;;16.64;55.41;98688.38;4939951;29;20612;-89
2022/04/20 11:43:49;;;;;;;5.90;3.23;;;;;;;16.57;55.52;98675.66;4939203;29;20722;-89
2022/04/20 11:46:16;;;;;;;6.30;3.30;;;;;;;16.60;56.15;98677.19;4956687;29;20179;-89
2022/04/20 11:48:56;;;;;;;8.63;4.17;;;;;;;16.70;56.35;98687.81;4956108;29;20188;-89
2022/04/20 11:51:25;;;;;;;7.43;3.97;;;;;;;16.82;55.86;98681.50;4939127;29;20277;-89
2022/04/20 11:53:52;;;;;;;7.20;3.70;;;;;;;16.84;55.45;98679.56;4956303;29;20243;-89
2022/04/20 11:56:32;;;;;;;6.13;3.40;;;;;;;16.84;55.71;98690.16;4955968;29;20265;-89
2022/04/20 11:58:58;;;;;;;8.30;4.07;;;;;;;16.82;56.02;98678.88;4956249;29;20502;-89
2022/04/20 12:01:25;;;;;;;7.67;3.53;;;;;;;16.86;56.54;98670.53;4938908;29;20184;-89
2022/04/20 12:03:51;;;;;;;6.67;3.70;;;;;;;16.88;58.29;98673.03;4938969;29;20630;-88
2022/04/20 12:06:20;;;;;;;6.80;3.37;;;;;;;16.90;58.11;98660.53;4955790;29;20192;-88
2022/04/20 12:08:47;;;;;;;6.57;3.03;;;;;;;16.82;56.01;98652.41;4938838;29;20271;-88
2022/04/20 12:11:15;;;;;;;5.60;3.27;;;;;;;16.92;58.40;98642.69;4938687;29;20200;-88